Time;durP1;ratioP1;P1;durP2;ratioP2;P2;SDS_P1;SDS_P2;PMS_P1;PMS_P2;Temp;Humidity;BMP_temperature;BMP_pressure;BME280_temperature;BME280_humidity;BME280_pressure;Samples;Min_cycle;Max_cycle;Signal;HPM_P1;HPM_P2
2022/11/28 00:01:44;;;;;;;42.42;23.42;;;;;;;;;;4962874;28;20050;-70
2022/11/28 00:04:11;;;;;;;40.40;22.45;;;;;;;;;;4964899;28;20132;-70
2022/11/28 00:06:38;;;;;;;40.05;21.77;;;;;;;;;;4962439;28;20035;-70
2022/11/28 00:09:04;;;;;;;43.05;23.55;;;;;;;;;;4963750;28;20366;-69
2022/11/28 00:11:30;;;;;;;41.95;22.60;;;;;;;;;;4960776;28;20019;-69
2022/11/28 00:13:56;;;;;;;41.72;22.65;;;;;;;;;;4966276;28;20058;-70
2022/11/28 00:16:23;;;;;;;38.13;22.48;;;;;;;;;;4966034;28;20037;-69
2022/11/28 00:18:52;;;;;;;46.22;22.30;;;;;;;;;;4966564;28;20046;-70
2022/11/28 00:21:19;;;;;;;39.08;22.38;;;;;;;;;;4964593;28;20114;-70
2022/11/28 00:23:46;;;;;;;43.13;22.45;;;;;;;;;;4965898;28;20035;-70
2022/11/28 00:26:14;;;;;;;38.10;21.80;;;;;;;;;;4964780;28;20027;-70
2022/11/28 00:28:40;;;;;;;43.28;22.50;;;;;;;;;;4948816;28;20030;-70
2022/11/28 00:31:06;;;;;;;39.38;22.15;;;;;;;;;;4963086;28;20133;-69
2022/11/28 00:33:33;;;;;;;44.25;22.50;;;;;;;;;;4965295;28;20484;-70
2022/11/28 00:35:59;;;;;;;43.03;23.20;;;;;;;;;;4966050;28;20050;-69
2022/11/28 00:38:25;;;;;;;39.80;22.75;;;;;;;;;;4963299;28;20506;-69
2022/11/28 00:41:02;;;;;;;49.67;24.73;;;;;;;;;;4946000;28;20143;-69
2022/11/28 00:43:28;;;;;;;41.92;24.63;;;;;;;;;;4959934;28;20119;-68
2022/11/28 00:45:54;;;;;;;50.28;26.42;;;;;;;;;;4964500;28;20037;-69
2022/11/28 00:48:20;;;;;;;55.20;25.40;;;;;;;;;;4962299;28;20146;-69
2022/11/28 00:50:47;;;;;;;53.97;26.23;;;;;;;;;;4947539;28;20051;-69
2022/11/28 00:53:13;;;;;;;45.05;26.23;;;;;;;;;;4968028;28;20041;-70
2022/11/28 00:55:39;;;;;;;47.25;26.58;;;;;;;;;;4963424;28;20042;-71
2022/11/28 00:58:05;;;;;;;47.45;27.98;;;;;;;;;;4967552;28;20030;-70
2022/11/28 01:00:31;;;;;;;49.58;27.58;;;;;;;;;;4965166;28;20116;-70
2022/11/28 01:02:58;;;;;;;50.17;28.27;;;;;;;;;;4967393;28;20038;-70
2022/11/28 01:05:24;;;;;;;57.22;29.10;;;;;;;;;;4966499;28;20512;-70
2022/11/28 01:07:50;;;;;;;50.58;27.73;;;;;;;;;;4967789;28;20035;-70
2022/11/28 01:10:16;;;;;;;54.70;29.67;;;;;;;;;;4964158;28;20180;-71
2022/11/28 01:12:42;;;;;;;59.38;29.98;;;;;;;;;;4967190;28;20042;-71
2022/11/28 01:15:09;;;;;;;61.45;32.75;;;;;;;;;;4966479;28;20162;-70
2022/11/28 01:17:35;;;;;;;55.88;31.30;;;;;;;;;;4967121;28;20175;-70
2022/11/28 01:20:01;;;;;;;57.10;31.85;;;;;;;;;;4964615;28;20585;-71
2022/11/28 01:22:27;;;;;;;55.95;33.35;;;;;;;;;;4967878;28;20440;-70
2022/11/28 01:24:53;;;;;;;55.72;32.33;;;;;;;;;;4967040;28;20035;-70
2022/11/28 01:27:19;;;;;;;52.85;32.53;;;;;;;;;;4967360;28;20027;-70
2022/11/28 01:29:46;;;;;;;51.90;30.75;;;;;;;;;;4963841;28;20034;-72
2022/11/28 01:32:12;;;;;;;49.88;31.52;;;;;;;;;;4962764;28;20042;-71
2022/11/28 01:34:38;;;;;;;51.40;30.35;;;;;;;;;;4969842;28;20054;-72
2022/11/28 01:37:04;;;;;;;53.45;30.58;;;;;;;;;;4967350;28;20459;-70
2022/11/28 01:39:31;;;;;;;49.90;31.33;;;;;;;;;;4948969;28;20042;-72
2022/11/28 01:41:57;;;;;;;41.90;28.08;;;;;;;;;;4962373;28;20027;-70
2022/11/28 01:44:23;;;;;;;47.05;27.83;;;;;;;;;;4967742;28;20039;-70
2022/11/28 01:46:48;;;;;;;46.58;28.15;;;;;;;;;;4967524;28;20109;-71
2022/11/28 01:49:44;;;;;;;40.42;27.20;;;;;;;;;;4968552;28;20118;-70
2022/11/28 01:52:13;;;;;;;41.92;27.10;;;;;;;;;;4958357;28;20469;-70
2022/11/28 01:54:41;;;;;;;38.58;25.98;;;;;;;;;;4953397;28;20037;-70
2022/11/28 01:57:20;;;;;;;37.65;25.75;;;;;;;;;;4964486;28;20085;-71
2022/11/28 01:59:48;;;;;;;37.45;25.17;;;;;;;;;;4967217;28;20038;-72
2022/11/28 02:02:17;;;;;;;37.60;24.45;;;;;;;;;;4965685;28;20037;-70
2022/11/28 02:04:45;;;;;;;37.08;23.88;;;;;;;;;;4968651;28;20074;-71
2022/11/28 02:07:11;;;;;;;36.75;24.65;;;;;;;;;;4951285;28;20027;-71
2022/11/28 02:09:37;;;;;;;38.38;25.83;;;;;;;;;;4967898;28;20133;-72
2022/11/28 02:12:10;;;;;;;35.35;24.35;;;;;;;;;;4965795;28;20125;-71
2022/11/28 02:14:42;;;;;;;31.70;22.70;;;;;;;;;;4967315;28;20091;-71
2022/11/28 02:17:11;;;;;;;33.58;23.40;;;;;;;;;;4966148;28;20156;-70
2022/11/28 02:19:46;;;;;;;32.53;22.83;;;;;;;;;;4967874;28;20030;-71
2022/11/28 02:22:18;;;;;;;35.38;23.23;;;;;;;;;;4965923;28;20085;-72
2022/11/28 02:25:03;;;;;;;32.22;22.65;;;;;;;;;;4969297;28;20044;-71
2022/11/28 02:27:48;;;;;;;31.35;21.77;;;;;;;;;;4971774;28;20290;-70
2022/11/28 02:30:14;;;;;;;31.50;23.52;;;;;;;;;;4968529;28;20094;-72
2022/11/28 02:32:40;;;;;;;30.52;23.42;;;;;;;;;;4964955;28;20117;-71
2022/11/28 02:35:26;;;;;;;31.25;23.55;;;;;;;;;;4969164;28;20570;-72
2022/11/28 02:38:06;;;;;;;37.97;27.38;;;;;;;;;;4967576;28;20054;-71
2022/11/28 02:40:55;;;;;;;79.03;50.42;;;;;;;;;;4966701;28;20031;-71
2022/11/28 02:43:50;;;;;;;92.82;53.58;;;;;;;;;;4969726;28;20038;-70
2022/11/28 02:46:21;;;;;;;106.00;59.25;;;;;;;;;;4886876;28;20080;-71
2022/11/28 02:48:59;;;;;;;86.47;51.13;;;;;;;;;;4958852;28;20583;-71
2022/11/28 02:51:37;;;;;;;59.55;37.28;;;;;;;;;;4965816;28;20123;-71
2022/11/28 02:54:05;;;;;;;51.13;33.97;;;;;;;;;;4964160;28;20081;-70
2022/11/28 02:56:31;;;;;;;40.15;29.13;;;;;;;;;;4965184;28;20050;-70
2022/11/28 02:58:57;;;;;;;45.03;28.95;;;;;;;;;;4950120;28;20031;-70
2022/11/28 03:01:37;;;;;;;43.25;31.10;;;;;;;;;;4966783;28;20057;-71
2022/11/28 03:04:03;;;;;;;44.10;29.73;;;;;;;;;;4970377;28;20061;-71
2022/11/28 03:06:29;;;;;;;40.65;30.80;;;;;;;;;;4970404;28;20066;-71
2022/11/28 03:08:55;;;;;;;44.53;30.33;;;;;;;;;;4970459;28;20022;-70
2022/11/28 03:11:39;;;;;;;47.20;30.23;;;;;;;;;;4967358;28;20019;-71
2022/11/28 03:14:08;;;;;;;45.42;31.60;;;;;;;;;;4969451;28;20030;-71
2022/11/28 03:16:38;;;;;;;44.25;31.95;;;;;;;;;;4965870;28;20050;-71
2022/11/28 03:19:14;;;;;;;44.00;31.80;;;;;;;;;;4973720;28;20026;-70
2022/11/28 03:21:42;;;;;;;44.47;31.65;;;;;;;;;;4968172;28;20022;-71
2022/11/28 03:24:23;;;;;;;48.53;33.40;;;;;;;;;;4968102;28;20045;-71
2022/11/28 03:26:58;;;;;;;45.72;31.73;;;;;;;;;;4969345;28;20177;-71
2022/11/28 03:29:27;;;;;;;49.20;34.17;;;;;;;;;;4967990;28;20035;-71
2022/11/28 03:31:56;;;;;;;48.13;33.05;;;;;;;;;;4964319;28;20035;-72
2022/11/28 03:34:24;;;;;;;51.33;35.65;;;;;;;;;;4966070;28;20055;-71
2022/11/28 03:36:53;;;;;;;50.40;34.95;;;;;;;;;;4965840;28;20070;-70
2022/11/28 03:39:22;;;;;;;53.60;35.38;;;;;;;;;;4964589;28;20407;-71
2022/11/28 03:41:50;;;;;;;57.45;37.50;;;;;;;;;;4964344;28;20039;-70
2022/11/28 03:44:20;;;;;;;59.45;36.00;;;;;;;;;;4967160;28;20045;-70
2022/11/28 03:46:48;;;;;;;56.20;37.15;;;;;;;;;;4964129;28;20035;-70
2022/11/28 03:49:19;;;;;;;59.38;37.50;;;;;;;;;;4949816;28;20034;-71
2022/11/28 03:51:52;;;;;;;59.88;37.90;;;;;;;;;;4960248;28;20100;-70
2022/11/28 03:54:18;;;;;;;62.40;38.78;;;;;;;;;;4968890;28;20110;-70
2022/11/28 03:56:44;;;;;;;63.47;39.03;;;;;;;;;;4963443;28;20404;-71
2022/11/28 03:59:15;;;;;;;61.28;38.55;;;;;;;;;;4961330;28;20145;-69
2022/11/28 04:01:48;;;;;;;61.97;39.77;;;;;;;;;;4962564;28;20035;-70
2022/11/28 04:04:30;;;;;;;65.40;38.30;;;;;;;;;;4967710;28;20034;-70
2022/11/28 04:06:55;;;;;;;;;;;;;;;;;;4968255;28;20477;-70
2022/11/28 04:09:31;;;;;;;64.70;38.72;;;;;;;;;;4961302;28;19965;-70
2022/11/28 04:12:00;;;;;;;63.75;40.30;;;;;;;;;;4967052;28;20022;-69
2022/11/28 04:14:31;;;;;;;68.22;40.95;;;;;;;;;;4964357;28;20489;-70
2022/11/28 04:17:01;;;;;;;67.03;40.83;;;;;;;;;;4964988;28;20432;-70
2022/11/28 04:19:33;;;;;;;67.72;41.28;;;;;;;;;;4949067;28;20279;-71
2022/11/28 04:22:02;;;;;;;65.28;40.80;;;;;;;;;;4966691;28;20465;-71
2022/11/28 04:24:32;;;;;;;67.35;41.58;;;;;;;;;;4964910;28;20120;-70
2022/11/28 04:27:01;;;;;;;68.35;42.78;;;;;;;;;;4967654;28;20041;-70
2022/11/28 04:29:30;;;;;;;83.95;43.60;;;;;;;;;;4964529;28;20026;-70
2022/11/28 04:31:57;;;;;;;73.43;43.60;;;;;;;;;;4967537;28;20436;-69
2022/11/28 04:34:25;;;;;;;75.20;42.33;;;;;;;;;;4949552;28;20181;-70
2022/11/28 04:36:52;;;;;;;75.60;43.03;;;;;;;;;;4965229;28;20046;-71
2022/11/28 04:39:20;;;;;;;81.68;43.28;;;;;;;;;;4970413;28;20035;-70
2022/11/28 04:41:51;;;;;;;71.90;43.38;;;;;;;;;;4953337;28;20031;-71
2022/11/28 04:44:20;;;;;;;73.00;42.23;;;;;;;;;;4968262;28;20034;-70
2022/11/28 04:46:50;;;;;;;73.35;40.38;;;;;;;;;;4973185;28;20058;-71
2022/11/28 04:49:16;;;;;;;69.72;41.13;;;;;;;;;;4964865;28;20061;-71
2022/11/28 04:51:48;;;;;;;70.97;40.50;;;;;;;;;;4962145;28;20066;-71
2022/11/28 04:54:28;;;;;;;71.00;39.53;;;;;;;;;;4966229;28;20398;-70
2022/11/28 04:56:57;;;;;;;69.25;39.88;;;;;;;;;;4965846;28;20054;-70
2022/11/28 04:59:25;;;;;;;72.13;40.22;;;;;;;;;;4963979;28;20031;-70
2022/11/28 05:01:51;;;;;;;72.30;38.53;;;;;;;;;;4961259;28;20102;-71
2022/11/28 05:04:17;;;;;;;71.93;37.80;;;;;;;;;;4967118;28;20035;-70
2022/11/28 05:06:44;;;;;;;68.72;37.97;;;;;;;;;;4967997;28;20481;-71
2022/11/28 05:09:11;;;;;;;69.68;37.90;;;;;;;;;;4967952;28;20023;-71
2022/11/28 05:11:37;;;;;;;69.82;38.42;;;;;;;;;;4966289;28;20165;-71
2022/11/28 05:14:04;;;;;;;73.43;37.70;;;;;;;;;;4968648;28;20090;-70
2022/11/28 05:16:30;;;;;;;68.68;37.58;;;;;;;;;;4967828;28;20105;-70
2022/11/28 05:18:56;;;;;;;67.55;37.05;;;;;;;;;;4966595;28;20074;-70
2022/11/28 05:21:22;;;;;;;65.88;35.55;;;;;;;;;;4967991;28;20404;-71
2022/11/28 05:23:48;;;;;;;74.00;37.17;;;;;;;;;;4964953;28;20054;-71
2022/11/28 05:26:19;;;;;;;72.93;37.25;;;;;;;;;;4965458;28;20031;-70
2022/11/28 05:28:46;;;;;;;75.00;37.72;;;;;;;;;;4970462;28;20392;-71
2022/11/28 05:31:13;;;;;;;78.70;37.90;;;;;;;;;;4966383;28;20035;-71
2022/11/28 05:33:39;;;;;;;77.57;37.90;;;;;;;;;;4965722;28;20507;-71
2022/11/28 05:36:06;;;;;;;76.30;36.83;;;;;;;;;;4971842;28;20042;-72
2022/11/28 05:38:32;;;;;;;74.93;37.15;;;;;;;;;;4951700;28;20038;-72
2022/11/28 05:40:59;;;;;;;73.68;36.88;;;;;;;;;;4964004;28;20035;-71
2022/11/28 05:43:25;;;;;;;75.15;37.00;;;;;;;;;;4934717;28;20472;-71
2022/11/28 05:45:51;;;;;;;74.45;37.72;;;;;;;;;;4963592;28;20575;-71
2022/11/28 05:48:17;;;;;;;78.18;37.63;;;;;;;;;;4967373;28;20031;-69
2022/11/28 05:50:43;;;;;;;74.55;37.25;;;;;;;;;;4950749;28;20049;-72
2022/11/28 05:53:10;;;;;;;70.78;37.42;;;;;;;;;;4950293;28;20093;-70
2022/11/28 05:55:40;;;;;;;74.75;38.05;;;;;;;;;;4965806;28;20089;-70
2022/11/28 05:58:06;;;;;;;75.80;37.53;;;;;;;;;;4965799;28;20054;-72
2022/11/28 06:00:32;;;;;;;71.65;37.58;;;;;;;;;;4966110;28;20444;-71
2022/11/28 06:02:58;;;;;;;72.93;36.80;;;;;;;;;;4962656;28;20039;-69
2022/11/28 06:05:24;;;;;;;76.38;37.42;;;;;;;;;;4968656;28;20484;-70
2022/11/28 06:07:50;;;;;;;73.43;37.20;;;;;;;;;;4950583;28;20042;-70
2022/11/28 06:10:17;;;;;;;75.63;38.45;;;;;;;;;;4967214;28;20026;-71
2022/11/28 06:12:43;;;;;;;78.63;38.10;;;;;;;;;;4967029;28;20038;-70
2022/11/28 06:15:09;;;;;;;73.47;37.67;;;;;;;;;;4966962;28;20042;-70
2022/11/28 06:17:36;;;;;;;71.10;37.25;;;;;;;;;;4949910;28;20050;-72
2022/11/28 06:20:03;;;;;;;73.07;37.33;;;;;;;;;;4966119;28;20027;-71
2022/11/28 06:22:29;;;;;;;74.47;38.33;;;;;;;;;;4970023;28;20035;-71
2022/11/28 06:24:56;;;;;;;79.53;40.47;;;;;;;;;;4974098;28;20388;-71
2022/11/28 06:27:22;;;;;;;78.18;40.08;;;;;;;;;;4970107;28;20030;-71
2022/11/28 06:29:48;;;;;;;77.20;38.25;;;;;;;;;;4974298;28;20119;-72
2022/11/28 06:32:14;;;;;;;83.97;39.30;;;;;;;;;;4972693;28;20123;-72
2022/11/28 06:34:40;;;;;;;84.50;39.80;;;;;;;;;;4974053;28;20082;-72
2022/11/28 06:37:06;;;;;;;82.55;39.10;;;;;;;;;;4972059;28;20043;-70
2022/11/28 06:39:32;;;;;;;85.28;39.60;;;;;;;;;;4966456;28;20038;-72
2022/11/28 06:41:58;;;;;;;82.47;38.42;;;;;;;;;;4966962;28;20026;-72
2022/11/28 06:44:24;;;;;;;86.65;40.22;;;;;;;;;;4951277;28;20042;-71
2022/11/28 06:46:50;;;;;;;89.13;40.40;;;;;;;;;;4965508;28;20034;-71
2022/11/28 06:49:16;;;;;;;98.57;42.03;;;;;;;;;;4962405;28;20055;-70
2022/11/28 06:51:44;;;;;;;94.80;42.15;;;;;;;;;;4965396;28;20053;-70
2022/11/28 06:54:10;;;;;;;95.00;42.35;;;;;;;;;;4962566;28;20102;-70
2022/11/28 06:56:36;;;;;;;97.07;42.05;;;;;;;;;;4966970;28;20595;-70
2022/11/28 06:59:02;;;;;;;99.78;41.75;;;;;;;;;;4967060;28;20035;-70
2022/11/28 07:01:29;;;;;;;105.07;44.88;;;;;;;;;;4966968;28;20343;-70
2022/11/28 07:03:56;;;;;;;102.45;45.38;;;;;;;;;;4967237;28;20034;-70
2022/11/28 07:06:23;;;;;;;112.32;47.38;;;;;;;;;;4968688;28;20468;-71
2022/11/28 07:08:49;;;;;;;113.82;47.55;;;;;;;;;;4970055;28;20033;-71
2022/11/28 07:11:22;;;;;;;117.57;46.83;;;;;;;;;;4967974;28;20027;-71
2022/11/28 07:13:49;;;;;;;107.13;45.60;;;;;;;;;;4966849;28;20041;-71
2022/11/28 07:16:17;;;;;;;118.90;48.22;;;;;;;;;;4972487;28;20066;-71
2022/11/28 07:18:43;;;;;;;114.38;47.42;;;;;;;;;;4969787;28;20031;-71
2022/11/28 07:21:10;;;;;;;123.30;48.63;;;;;;;;;;4968060;28;20476;-72
2022/11/28 07:23:36;;;;;;;134.98;49.67;;;;;;;;;;4970466;28;20229;-72
2022/11/28 07:26:03;;;;;;;120.22;46.47;;;;;;;;;;4970769;28;20030;-71
2022/11/28 07:28:30;;;;;;;129.95;48.20;;;;;;;;;;4969677;28;20110;-71
2022/11/28 07:30:59;;;;;;;138.52;48.20;;;;;;;;;;4970419;28;20027;-71
2022/11/28 07:33:26;;;;;;;128.00;48.13;;;;;;;;;;4967881;28;20368;-71
2022/11/28 07:35:51;;;;;;;121.88;47.55;;;;;;;;;;4971209;28;20598;-72
2022/11/28 07:38:17;;;;;;;131.82;47.50;;;;;;;;;;4969982;28;20125;-71
2022/11/28 07:40:43;;;;;;;139.43;48.47;;;;;;;;;;4973888;28;20480;-71
2022/11/28 07:43:09;;;;;;;129.18;46.63;;;;;;;;;;4971508;28;20038;-71
2022/11/28 07:45:38;;;;;;;133.57;48.75;;;;;;;;;;4972064;28;20045;-71
2022/11/28 07:48:04;;;;;;;141.30;47.45;;;;;;;;;;4951241;28;20492;-70
2022/11/28 07:50:30;;;;;;;141.18;48.55;;;;;;;;;;4969023;28;20031;-70
2022/11/28 07:52:56;;;;;;;134.98;50.00;;;;;;;;;;4969110;28;20556;-71
2022/11/28 07:55:23;;;;;;;134.30;46.92;;;;;;;;;;4970230;28;20035;-71
2022/11/28 07:57:48;;;;;;;140.68;48.50;;;;;;;;;;4973045;28;20109;-71
2022/11/28 08:00:15;;;;;;;139.95;47.30;;;;;;;;;;4974700;28;20030;-71
2022/11/28 08:02:41;;;;;;;141.95;50.92;;;;;;;;;;4962641;28;20043;-71
2022/11/28 08:05:07;;;;;;;128.45;47.33;;;;;;;;;;4969091;28;20027;-71
2022/11/28 08:07:33;;;;;;;140.50;49.03;;;;;;;;;;4968950;28;20041;-70
2022/11/28 08:09:59;;;;;;;141.20;48.60;;;;;;;;;;4970049;28;20540;-70
2022/11/28 08:12:25;;;;;;;135.98;46.90;;;;;;;;;;4971022;28;20138;-71
2022/11/28 08:14:51;;;;;;;136.32;48.60;;;;;;;;;;4969813;28;20122;-70
2022/11/28 08:17:17;;;;;;;150.85;48.72;;;;;;;;;;4969153;28;20718;-70
2022/11/28 08:19:43;;;;;;;151.75;50.13;;;;;;;;;;4967235;28;20116;-70
2022/11/28 08:22:09;;;;;;;160.93;49.33;;;;;;;;;;4967862;28;20022;-72
2022/11/28 08:24:35;;;;;;;162.80;52.15;;;;;;;;;;4970051;28;20042;-71
2022/11/28 08:27:01;;;;;;;169.77;51.67;;;;;;;;;;4968790;28;20055;-71
2022/11/28 08:29:27;;;;;;;175.82;52.58;;;;;;;;;;4946018;28;20073;-71
2022/11/28 08:31:53;;;;;;;190.27;53.90;;;;;;;;;;4965901;28;20039;-71
2022/11/28 08:34:19;;;;;;;172.80;52.13;;;;;;;;;;4969769;28;20133;-71
2022/11/28 08:36:47;;;;;;;174.50;54.28;;;;;;;;;;4969880;28;20547;-72
2022/11/28 08:39:13;;;;;;;185.18;53.58;;;;;;;;;;4950266;28;20030;-72
2022/11/28 08:41:39;;;;;;;183.93;53.67;;;;;;;;;;4966395;28;20039;-72
2022/11/28 08:44:05;;;;;;;171.65;50.80;;;;;;;;;;4951858;28;20400;-72
2022/11/28 08:46:32;;;;;;;192.27;51.67;;;;;;;;;;4969113;28;20031;-71
2022/11/28 08:49:00;;;;;;;176.25;52.05;;;;;;;;;;4968162;28;20093;-72
2022/11/28 08:51:28;;;;;;;172.13;51.67;;;;;;;;;;4962340;28;20026;-71
2022/11/28 08:53:55;;;;;;;195.20;52.53;;;;;;;;;;4969564;28;20148;-72
2022/11/28 08:56:21;;;;;;;199.70;56.42;;;;;;;;;;4969620;28;20034;-71
2022/11/28 08:58:48;;;;;;;202.20;52.38;;;;;;;;;;4969311;28;20041;-71
2022/11/28 09:01:15;;;;;;;213.30;51.70;;;;;;;;;;4968062;28;20050;-74
2022/11/28 09:03:41;;;;;;;200.50;54.65;;;;;;;;;;4973306;28;20050;-71
2022/11/28 09:06:07;;;;;;;206.55;54.75;;;;;;;;;;4961536;28;20480;-72
2022/11/28 09:08:33;;;;;;;211.77;54.03;;;;;;;;;;4970023;28;20924;-72
2022/11/28 09:10:59;;;;;;;207.88;52.45;;;;;;;;;;4967713;28;20047;-72
2022/11/28 09:13:25;;;;;;;197.68;52.92;;;;;;;;;;4966432;28;20034;-71
2022/11/28 09:15:51;;;;;;;206.52;51.70;;;;;;;;;;4970131;28;20496;-72
2022/11/28 09:18:18;;;;;;;207.25;53.63;;;;;;;;;;4968997;28;20087;-72
2022/11/28 09:20:44;;;;;;;227.68;54.17;;;;;;;;;;4967823;28;20059;-72
2022/11/28 09:23:10;;;;;;;216.38;52.28;;;;;;;;;;4968467;28;20031;-72
2022/11/28 09:25:39;;;;;;;261.90;54.50;;;;;;;;;;4969292;28;20034;-72
2022/11/28 09:28:05;;;;;;;258.33;53.50;;;;;;;;;;4970089;28;20034;-71
2022/11/28 09:30:32;;;;;;;224.07;52.35;;;;;;;;;;4968875;28;20129;-72
2022/11/28 09:32:58;;;;;;;225.25;52.78;;;;;;;;;;4970200;28;20090;-71
2022/11/28 09:35:24;;;;;;;230.68;51.63;;;;;;;;;;4968931;28;20056;-72
2022/11/28 09:37:50;;;;;;;217.43;52.53;;;;;;;;;;4969558;28;20045;-72
2022/11/28 09:40:26;;;;;;;249.50;55.20;;;;;;;;;;4965525;28;20030;-72
2022/11/28 09:42:52;;;;;;;211.38;52.67;;;;;;;;;;4967000;28;20047;-71
2022/11/28 09:45:20;;;;;;;230.43;54.10;;;;;;;;;;4968083;28;20037;-72
2022/11/28 09:47:48;;;;;;;221.15;54.38;;;;;;;;;;4967492;28;20034;-72
2022/11/28 09:50:19;;;;;;;205.25;53.35;;;;;;;;;;4969041;28;20268;-70
2022/11/28 09:52:49;;;;;;;224.40;53.28;;;;;;;;;;4968080;28;20573;-72
2022/11/28 09:55:22;;;;;;;218.68;53.67;;;;;;;;;;4969483;28;20113;-71
2022/11/28 09:57:49;;;;;;;210.18;50.17;;;;;;;;;;4971321;28;20038;-71
2022/11/28 10:00:20;;;;;;;210.13;52.75;;;;;;;;;;4971253;28;20109;-72
2022/11/28 10:03:05;;;;;;;201.90;49.65;;;;;;;;;;4979053;28;20034;-72
2022/11/28 10:05:40;;;;;;;208.95;51.83;;;;;;;;;;4972842;28;20051;-72
2022/11/28 10:08:21;;;;;;;195.02;48.35;;;;;;;;;;4965839;28;20022;-71
2022/11/28 10:10:49;;;;;;;;;;;;;;;;;;4969826;28;20037;-71
2022/11/28 10:13:21;;;;;;;196.95;49.25;;;;;;;;;;4972797;28;19910;-71
2022/11/28 10:15:59;;;;;;;210.55;52.10;;;;;;;;;;4971990;28;20101;-71
2022/11/28 10:18:38;;;;;;;218.52;52.20;;;;;;;;;;4971824;28;20484;-71
2022/11/28 10:21:31;;;;;;;225.30;53.95;;;;;;;;;;4969716;28;20033;-71
2022/11/28 10:23:59;;;;;;;233.13;54.80;;;;;;;;;;4927862;28;20057;-71
2022/11/28 10:26:36;;;;;;;223.02;53.92;;;;;;;;;;4970452;28;20023;-72
2022/11/28 10:29:06;;;;;;;204.48;52.53;;;;;;;;;;4971275;28;20034;-71
2022/11/28 10:31:40;;;;;;;210.27;53.72;;;;;;;;;;4970946;28;20023;-72
2022/11/28 10:34:09;;;;;;;208.38;52.30;;;;;;;;;;4972400;28;20154;-72
2022/11/28 10:36:55;;;;;;;196.63;53.97;;;;;;;;;;4971993;28;20047;-72
2022/11/28 10:39:21;;;;;;;182.05;49.40;;;;;;;;;;4965781;28;20030;-72
2022/11/28 10:42:11;;;;;;;177.85;50.60;;;;;;;;;;4970227;28;20042;-72
2022/11/28 10:44:49;;;;;;;184.40;48.38;;;;;;;;;;4969829;28;20050;-70
2022/11/28 10:47:15;;;;;;;182.43;50.72;;;;;;;;;;4972359;28;20046;-70
2022/11/28 10:49:50;;;;;;;189.77;53.33;;;;;;;;;;4972181;28;20449;-73
2022/11/28 10:52:25;;;;;;;173.43;52.20;;;;;;;;;;4972015;28;20035;-72
2022/11/28 10:54:54;;;;;;;173.38;48.88;;;;;;;;;;4970982;28;20118;-72
2022/11/28 10:57:23;;;;;;;152.57;45.67;;;;;;;;;;4972131;28;20023;-73
2022/11/28 10:59:58;;;;;;;159.60;44.95;;;;;;;;;;4971365;28;20031;-72
2022/11/28 11:02:24;;;;;;;145.15;42.78;;;;;;;;;;4971112;28;20018;-72
2022/11/28 11:04:50;;;;;;;147.75;46.50;;;;;;;;;;4972498;28;20106;-72
2022/11/28 11:07:19;;;;;;;163.02;46.50;;;;;;;;;;4971749;28;20030;-71
2022/11/28 11:09:45;;;;;;;142.25;45.80;;;;;;;;;;4970500;28;20066;-71
2022/11/28 11:12:23;;;;;;;136.10;43.65;;;;;;;;;;4970858;28;20037;-71
2022/11/28 11:14:49;;;;;;;124.80;41.53;;;;;;;;;;4969833;28;20069;-72
2022/11/28 11:17:24;;;;;;;129.50;42.47;;;;;;;;;;4971075;28;20472;-72
2022/11/28 11:19:50;;;;;;;123.93;40.22;;;;;;;;;;4972013;28;20081;-71
2022/11/28 11:22:25;;;;;;;144.00;42.53;;;;;;;;;;4969920;28;20035;-71
2022/11/28 11:25:10;;;;;;;130.48;41.30;;;;;;;;;;4971766;28;20039;-72
2022/11/28 11:27:36;;;;;;;120.38;42.15;;;;;;;;;;4969994;28;20122;-72
2022/11/28 11:30:15;;;;;;;132.48;43.10;;;;;;;;;;4967362;28;20073;-72
2022/11/28 11:32:41;;;;;;;127.93;41.70;;;;;;;;;;4968345;28;20496;-72
2022/11/28 11:35:15;;;;;;;118.15;42.38;;;;;;;;;;4970432;28;20047;-72
2022/11/28 11:37:42;;;;;;;124.95;40.88;;;;;;;;;;4971356;28;20039;-72
2022/11/28 11:40:28;;;;;;;113.63;39.58;;;;;;;;;;4965013;28;20027;-72
2022/11/28 11:42:55;;;;;;;130.70;43.05;;;;;;;;;;4969534;28;20480;-72
2022/11/28 11:45:30;;;;;;;133.93;41.70;;;;;;;;;;4970665;28;20019;-73
2022/11/28 11:47:56;;;;;;;123.38;39.75;;;;;;;;;;4971170;28;20030;-72
2022/11/28 11:50:23;;;;;;;123.68;40.53;;;;;;;;;;4970590;28;20034;-72
2022/11/28 11:53:06;;;;;;;119.28;41.67;;;;;;;;;;4953978;28;20027;-73
2022/11/28 11:55:37;;;;;;;119.72;41.80;;;;;;;;;;4970022;28;20086;-72
2022/11/28 11:58:03;;;;;;;;;;;;;;;;;;4973082;28;20093;-72
2022/11/28 12:00:34;;;;;;;125.18;41.42;;;;;;;;;;4976057;28;19910;-73
2022/11/28 12:03:04;;;;;;;123.40;41.33;;;;;;;;;;4969916;28;20038;-72
2022/11/28 12:05:34;;;;;;;123.00;43.88;;;;;;;;;;4970124;28;20074;-73
2022/11/28 12:08:11;;;;;;;131.68;43.40;;;;;;;;;;4970155;28;20026;-73
2022/11/28 12:10:46;;;;;;;129.27;43.92;;;;;;;;;;4970028;28;20022;-72
2022/11/28 12:13:22;;;;;;;131.75;44.53;;;;;;;;;;4970085;28;20034;-72
2022/11/28 12:16:08;;;;;;;137.50;45.05;;;;;;;;;;4971211;28;20056;-72
2022/11/28 12:18:48;;;;;;;150.45;49.72;;;;;;;;;;4970951;28;20015;-72
2022/11/28 12:21:22;;;;;;;139.95;47.65;;;;;;;;;;4969223;28;20081;-72
2022/11/28 12:24:09;;;;;;;138.13;46.92;;;;;;;;;;4970611;28;20035;-72
2022/11/28 12:26:53;;;;;;;122.78;44.97;;;;;;;;;;4970417;28;20074;-72
2022/11/28 12:29:19;;;;;;;131.18;47.35;;;;;;;;;;4966376;28;20022;-72
2022/11/28 12:31:55;;;;;;;135.07;48.80;;;;;;;;;;4966692;28;20027;-72
2022/11/28 12:34:30;;;;;;;122.60;48.00;;;;;;;;;;4970005;28;20031;-72
2022/11/28 12:37:00;;;;;;;113.70;47.28;;;;;;;;;;4970367;28;20112;-72
2022/11/28 12:39:45;;;;;;;123.10;48.40;;;;;;;;;;4963093;28;20027;-72
2022/11/28 12:42:19;;;;;;;115.57;47.72;;;;;;;;;;4963769;28;20184;-72
2022/11/28 12:44:53;;;;;;;116.95;47.35;;;;;;;;;;4970324;28;20042;-71
2022/11/28 12:47:28;;;;;;;110.55;47.85;;;;;;;;;;4968606;28;20069;-71
2022/11/28 12:50:02;;;;;;;115.97;46.75;;;;;;;;;;4969872;28;20034;-72
2022/11/28 12:52:34;;;;;;;102.90;44.28;;;;;;;;;;4964664;28;20077;-72
2022/11/28 12:55:05;;;;;;;106.22;45.63;;;;;;;;;;4971143;28;20034;-72
2022/11/28 12:57:46;;;;;;;102.60;42.15;;;;;;;;;;4971302;28;20058;-72
2022/11/28 13:00:19;;;;;;;99.13;41.15;;;;;;;;;;4966232;28;20037;-72
2022/11/28 13:02:51;;;;;;;98.97;41.83;;;;;;;;;;4963129;28;20027;-72
2022/11/28 13:05:24;;;;;;;104.70;42.92;;;;;;;;;;4968398;28;20569;-72
2022/11/28 13:07:53;;;;;;;100.20;40.97;;;;;;;;;;4969244;28;20456;-72
2022/11/28 13:10:20;;;;;;;100.30;41.78;;;;;;;;;;4945744;28;20085;-72
2022/11/28 13:13:05;;;;;;;105.80;44.05;;;;;;;;;;4970933;28;20081;-71
2022/11/28 13:15:50;;;;;;;102.10;43.33;;;;;;;;;;4967512;28;20086;-71
2022/11/28 13:18:19;;;;;;;105.15;43.30;;;;;;;;;;4969597;28;20022;-72
2022/11/28 13:20:49;;;;;;;113.93;43.90;;;;;;;;;;4969855;28;20030;-72
2022/11/28 13:23:28;;;;;;;101.57;43.53;;;;;;;;;;4971144;28;20027;-73
2022/11/28 13:26:13;;;;;;;98.85;40.78;;;;;;;;;;4968538;28;20074;-73
2022/11/28 13:28:47;;;;;;;99.72;41.25;;;;;;;;;;4965285;28;20026;-73
2022/11/28 13:31:13;;;;;;;103.22;41.45;;;;;;;;;;4971907;28;20022;-73
2022/11/28 13:33:39;;;;;;;103.50;44.83;;;;;;;;;;4974878;28;20046;-72
2022/11/28 13:36:07;;;;;;;105.07;43.40;;;;;;;;;;4954671;28;20113;-72
2022/11/28 13:38:55;;;;;;;94.25;42.80;;;;;;;;;;4972532;28;20396;-72
2022/11/28 13:41:30;;;;;;;96.13;41.15;;;;;;;;;;4968985;28;20049;-72
2022/11/28 13:43:56;;;;;;;93.50;40.63;;;;;;;;;;4973349;28;20058;-72
2022/11/28 13:46:22;;;;;;;99.53;41.28;;;;;;;;;;4972319;28;20061;-72
2022/11/28 13:48:50;;;;;;;95.88;40.33;;;;;;;;;;4974243;28;20504;-72
2022/11/28 13:51:30;;;;;;;104.97;43.00;;;;;;;;;;4972532;28;20464;-73
2022/11/28 13:54:16;;;;;;;100.70;41.92;;;;;;;;;;4973645;28;20461;-73
2022/11/28 13:56:42;;;;;;;106.05;42.63;;;;;;;;;;4962983;28;20523;-73
2022/11/28 13:59:16;;;;;;;90.57;38.90;;;;;;;;;;4968242;28;20174;-73
2022/11/28 14:01:44;;;;;;;95.65;40.53;;;;;;;;;;4971691;28;20030;-73
2022/11/28 14:04:12;;;;;;;104.82;41.55;;;;;;;;;;4971512;28;20676;-72
2022/11/28 14:06:41;;;;;;;100.20;42.45;;;;;;;;;;4968246;28;20109;-73
2022/11/28 14:09:08;;;;;;;95.93;39.63;;;;;;;;;;4967130;28;20088;-73
2022/11/28 14:11:34;;;;;;;102.03;41.17;;;;;;;;;;4968601;28;20430;-73
2022/11/28 14:14:06;;;;;;;104.80;41.22;;;;;;;;;;4970097;28;20027;-72
2022/11/28 14:16:58;;;;;;;98.10;41.08;;;;;;;;;;4964641;28;20035;-72
2022/11/28 14:19:30;;;;;;;99.60;38.58;;;;;;;;;;4943994;28;20184;-73
2022/11/28 14:21:59;;;;;;;93.75;38.95;;;;;;;;;;4968256;28;20485;-73
2022/11/28 14:24:44;;;;;;;102.85;38.15;;;;;;;;;;4968430;28;20395;-72
2022/11/28 14:27:17;;;;;;;100.78;39.85;;;;;;;;;;4967569;28;20512;-73